Time;durP1;ratioP1;P1;durP2;ratioP2;P2;SDS_P1;SDS_P2;PMS_P1;PMS_P2;Temp;Humidity;BMP_temperature;BMP_pressure;BME280_temperature;BME280_humidity;BME280_pressure;Samples;Min_cycle;Max_cycle;Signal;HPM_P1;HPM_P2
2023/01/04 00:01:50;;;;;;;41.33;38.20;;;8.20;99.90;;;;;;5010737;28;21108;-76
2023/01/04 00:04:15;;;;;;;133.27;124.47;;;8.20;99.90;;;;;;5009170;28;20123;-76
2023/01/04 00:06:41;;;;;;;69.23;64.80;;;8.20;99.90;;;;;;4997620;28;20663;-76
2023/01/04 00:09:07;;;;;;;16.03;14.50;;;8.30;99.90;;;;;;5008727;28;20342;-76
2023/01/04 00:11:32;;;;;;;69.13;64.53;;;8.30;99.90;;;;;;5009816;28;20084;-76
2023/01/04 00:13:59;;;;;;;37.37;34.30;;;8.20;99.90;;;;;;5009243;28;20054;-76
2023/01/04 00:16:26;;;;;;;48.93;45.10;;;8.20;99.90;;;;;;4998674;28;20137;-76
2023/01/04 00:18:53;;;;;;;107.17;100.50;;;8.20;99.90;;;;;;5005807;28;20046;-76
2023/01/04 00:21:27;;;;;;;55.07;51.50;;;8.10;99.90;;;;;;5010998;28;20089;-76
2023/01/04 00:23:55;;;;;;;96.97;91.53;;;8.00;99.90;;;;;;4996255;28;20039;-77
2023/01/04 00:26:29;;;;;;;157.93;145.93;;;7.90;99.90;;;;;;4979824;28;20287;-76
2023/01/04 00:29:03;;;;;;;26.17;23.80;;;7.80;99.90;;;;;;4987746;28;20050;-76
2023/01/04 00:31:29;;;;;;;205.30;193.03;;;7.80;99.90;;;;;;4987680;28;20046;-76
2023/01/04 00:33:57;;;;;;;31.07;28.30;;;7.70;99.90;;;;;;4989466;28;20051;-76
2023/01/04 00:36:23;;;;;;;30.57;27.93;;;7.60;99.90;;;;;;4977959;28;20517;-76
2023/01/04 00:39:08;;;;;;;46.37;43.00;;;7.60;99.90;;;;;;4987256;28;20093;-75
2023/01/04 00:41:43;;;;;;;46.50;43.03;;;7.70;99.90;;;;;;4988824;28;20485;-76
2023/01/04 00:44:09;;;;;;;50.53;46.80;;;7.60;99.90;;;;;;4984867;28;20097;-76
2023/01/04 00:46:35;;;;;;;25.13;22.90;;;7.70;99.90;;;;;;4977106;28;20504;-76
2023/01/04 00:49:02;;;;;;;47.30;43.43;;;7.70;99.90;;;;;;4985222;28;20046;-76
2023/01/04 00:51:29;;;;;;;28.60;26.33;;;7.70;99.90;;;;;;4990224;28;20464;-75
2023/01/04 00:53:56;;;;;;;62.53;58.43;;;7.80;99.90;;;;;;4988108;28;20042;-76
2023/01/04 00:56:22;;;;;;;127.30;119.10;;;7.90;99.90;;;;;;4977529;28;20050;-76
2023/01/04 00:58:47;;;;;;;130.30;122.27;;;7.70;99.90;;;;;;4968899;28;20054;-76
2023/01/04 01:01:13;;;;;;;48.00;44.80;;;7.70;99.90;;;;;;4990845;28;20133;-76
2023/01/04 01:03:39;;;;;;;72.83;67.80;;;7.80;99.90;;;;;;4989474;28;20045;-76
2023/01/04 01:06:06;;;;;;;164.07;154.67;;;7.80;99.90;;;;;;4991067;28;20055;-76
2023/01/04 01:08:33;;;;;;;40.77;37.80;;;7.90;99.90;;;;;;4979408;28;20567;-76
2023/01/04 01:11:05;;;;;;;76.13;71.07;;;7.90;99.90;;;;;;4984198;28;20057;-76
2023/01/04 01:13:31;;;;;;;35.40;32.63;;;7.80;99.90;;;;;;4987979;28;20055;-75
2023/01/04 01:16:05;;;;;;;49.40;46.13;;;7.80;99.90;;;;;;4990797;28;20571;-76
2023/01/04 01:18:32;;;;;;;70.10;65.67;;;7.80;99.90;;;;;;4974275;28;20050;-76
2023/01/04 01:20:58;;;;;;;156.70;145.10;;;7.80;99.90;;;;;;4989326;28;20062;-76
2023/01/04 01:23:26;;;;;;;71.33;66.13;;;7.70;99.90;;;;;;4996706;28;20476;-76
2023/01/04 01:25:52;;;;;;;62.20;58.10;;;7.80;99.90;;;;;;4997590;28;20053;-76
2023/01/04 01:28:17;;;;;;;105.80;99.43;;;7.70;99.90;;;;;;4973427;28;20096;-76
2023/01/04 01:30:43;;;;;;;34.03;31.40;;;7.70;99.90;;;;;;4988831;28;20125;-75
2023/01/04 01:33:09;;;;;;;70.97;66.47;;;7.70;99.90;;;;;;4989077;28;20078;-76
2023/01/04 01:35:35;;;;;;;135.70;127.07;;;7.70;99.90;;;;;;4989377;28;20068;-75
2023/01/04 01:38:01;;;;;;;73.40;69.00;;;7.80;99.90;;;;;;4973458;28;20054;-76
2023/01/04 01:40:28;;;;;;;72.33;67.53;;;7.80;99.90;;;;;;4990459;28;20447;-76
2023/01/04 01:42:54;;;;;;;43.83;40.83;;;7.80;99.90;;;;;;4996219;28;20437;-76
2023/01/04 01:45:31;;;;;;;289.67;269.97;;;7.70;99.90;;;;;;5008980;28;20061;-75
2023/01/04 01:48:03;;;;;;;47.23;43.97;;;7.80;99.90;;;;;;4991855;28;20108;-76
2023/01/04 01:50:43;;;;;;;47.97;44.30;;;7.70;99.90;;;;;;5009759;28;20052;-76
2023/01/04 01:53:10;;;;;;;27.13;24.80;;;7.70;99.90;;;;;;5007196;28;20049;-76
2023/01/04 01:55:39;;;;;;;31.90;29.47;;;7.70;99.90;;;;;;5012094;28;20085;-76
2023/01/04 01:58:06;;;;;;;48.67;45.07;;;7.70;99.90;;;;;;4996611;28;20566;-77
2023/01/04 02:00:32;;;;;;;51.00;47.63;;;7.70;99.90;;;;;;5012485;28;20412;-76
2023/01/04 02:03:16;;;;;;;28.87;26.47;;;7.70;99.90;;;;;;5012565;28;20459;-76
2023/01/04 02:05:43;;;;;;;39.53;37.10;;;7.70;99.90;;;;;;5012235;28;20119;-75
2023/01/04 02:08:10;;;;;;;68.20;64.37;;;7.70;99.90;;;;;;4996336;28;20073;-76
2023/01/04 02:10:36;;;;;;;92.63;86.47;;;7.70;99.90;;;;;;5001167;28;20338;-76
2023/01/04 02:13:07;;;;;;;18.03;16.43;;;7.80;99.90;;;;;;4991293;28;20061;-76
2023/01/04 02:15:48;;;;;;;44.72;41.85;;;7.90;99.90;;;;;;4991830;28;20054;-76
2023/01/04 02:18:22;;;;;;;77.35;72.57;;;7.90;99.90;;;;;;4975993;28;20046;-75
2023/01/04 02:20:54;;;;;;;64.80;60.80;;;7.80;99.90;;;;;;4992619;28;20097;-75
2023/01/04 02:23:19;;;;;;;;;;;7.90;99.90;;;;;;4991532;28;20514;-77
2023/01/04 02:26:18;;;;;;;59.33;55.90;;;7.90;99.90;;;;;;4993605;28;19921;-76
2023/01/04 02:29:12;;;;;;;110.70;104.40;;;8.00;99.90;;;;;;4987005;28;20062;-76
2023/01/04 02:31:44;;;;;;;142.43;134.57;;;8.00;99.90;;;;;;4993355;28;20058;-77
2023/01/04 02:34:33;;;;;;;101.03;94.77;;;7.90;99.90;;;;;;5007107;28;20034;-76
2023/01/04 02:37:19;;;;;;;60.23;57.10;;;8.00;99.90;;;;;;4976376;28;20046;-76
2023/01/04 02:39:51;;;;;;;60.93;57.50;;;8.00;99.90;;;;;;4991830;28;20049;-76
2023/01/04 02:44:51;;;;;;;83.67;79.27;;;8.00;99.90;;;;;;5024512;28;20061;-76
2023/01/04 02:45:19;;;;;;;74.83;70.13;;;8.10;99.90;;;;;;4992541;28;20386;-76
2023/01/04 02:50:32;;;;;;;191.63;179.00;;;8.10;99.90;;;;;;4993109;28;20137;-75
2023/01/04 02:53:04;;;;;;;34.33;32.40;;;8.00;99.90;;;;;;5023551;28;20129;-76
2023/01/04 02:55:50;;;;;;;35.60;33.63;;;8.00;99.90;;;;;;4993040;28;20571;-76
2023/01/04 02:58:31;;;;;;;72.73;68.93;;;8.00;99.90;;;;;;5008455;28;20050;-76
2023/01/04 03:07:29;;;;;;;29.60;28.07;;;8.20;99.90;;;;;;4976274;28;20050;-75
2023/01/04 03:10:09;;;;;;;243.73;227.65;;;8.10;99.90;;;;;;4992071;28;20046;-76
2023/01/04 03:12:43;;;;;;;40.20;38.13;;;8.20;99.90;;;;;;5023783;28;20034;-76
2023/01/04 03:15:20;;;;;;;57.90;54.70;;;8.20;99.90;;;;;;4991924;28;20105;-76
2023/01/04 03:18:05;;;;;;;46.67;44.20;;;8.30;99.90;;;;;;5007522;28;20046;-77
2023/01/04 03:20:31;;;;;;;91.47;86.50;;;8.20;99.90;;;;;;4990716;28;20057;-75
2023/01/04 03:37:49;;;;;;;27.00;25.70;;;8.50;99.90;;;;;;4976812;28;20057;-75
2023/01/04 03:49:47;;;;;;;108.20;102.33;;;8.70;99.90;;;;;;4983459;28;20141;-76
2023/01/04 03:52:14;;;;;;;41.13;39.13;;;8.80;99.90;;;;;;4990493;28;20141;-75
2023/01/04 03:54:47;;;;;;;60.53;57.23;;;8.90;99.90;;;;;;4990853;28;20042;-78
2023/01/04 03:57:13;;;;;;;49.27;46.53;;;8.90;99.90;;;;;;4974634;28;20046;-76
2023/01/04 03:59:44;;;;;;;76.57;72.40;;;8.90;99.90;;;;;;5006415;28;20547;-75
2023/01/04 04:02:13;;;;;;;218.95;203.98;;;8.70;99.90;;;;;;5006611;28;20050;-75
2023/01/04 04:10:10;;;;;;;31.33;29.77;;;9.40;99.90;;;;;;5022127;28;20124;-75
2023/01/04 04:12:36;;;;;;;28.37;26.67;;;9.40;99.90;;;;;;5010492;28;20121;-76
2023/01/04 04:15:02;;;;;;;59.93;56.93;;;9.30;99.90;;;;;;5010601;28;20062;-75
2023/01/04 04:17:27;;;;;;;62.30;59.20;;;9.40;99.90;;;;;;4993826;28;20072;-76
2023/01/04 04:19:53;;;;;;;220.70;203.97;;;9.50;99.90;;;;;;5010198;28;20054;-76
2023/01/04 04:22:19;;;;;;;56.43;53.60;;;9.40;99.90;;;;;;5010036;28;20045;-76
2023/01/04 04:24:44;;;;;;;57.70;54.80;;;9.70;99.90;;;;;;5000448;28;20042;-76
2023/01/04 04:27:10;;;;;;;162.27;151.87;;;9.50;99.90;;;;;;4994689;28;20049;-75
2023/01/04 04:29:36;;;;;;;66.77;63.13;;;9.80;99.90;;;;;;5008701;28;20057;-75
2023/01/04 04:32:01;;;;;;;31.63;29.97;;;9.90;99.90;;;;;;5010837;28;20443;-77
2023/01/04 04:34:27;;;;;;;100.10;94.67;;;9.80;99.90;;;;;;5009378;28;20053;-75
2023/01/04 04:36:53;;;;;;;34.17;32.23;;;9.40;99.90;;;;;;4977087;28;20413;-75
2023/01/04 04:39:18;;;;;;;99.37;92.17;;;9.50;99.90;;;;;;4990579;28;20133;-75
2023/01/04 04:41:44;;;;;;;29.57;27.70;;;10.20;99.90;;;;;;4990414;28;20046;-76
2023/01/04 04:44:15;;;;;;;26.53;24.87;;;10.10;99.90;;;;;;4989687;28;20051;-76
2023/01/04 04:46:41;;;;;;;35.83;33.47;;;9.90;99.90;;;;;;4976370;28;20046;-76
2023/01/04 04:49:08;;;;;;;80.13;74.80;;;9.60;99.90;;;;;;5004677;28;20061;-76
2023/01/04 04:51:34;;;;;;;97.87;91.90;;;9.60;99.90;;;;;;5010792;28;20125;-76
2023/01/04 04:54:01;;;;;;;276.80;253.07;;;9.90;99.90;;;;;;5009638;28;20121;-77
2023/01/04 04:56:26;;;;;;;42.07;39.33;;;9.80;99.90;;;;;;4996588;28;20683;-75
2023/01/04 04:58:52;;;;;;;176.77;165.17;;;9.90;99.90;;;;;;5004997;28;20129;-75
2023/01/04 05:01:18;;;;;;;45.47;42.50;;;10.20;99.90;;;;;;5010102;28;20052;-75
2023/01/04 05:03:44;;;;;;;69.40;65.37;;;10.00;99.90;;;;;;5009654;28;20455;-76
2023/01/04 05:06:10;;;;;;;440.53;401.47;;;10.00;99.90;;;;;;5003816;28;20053;-76
2023/01/04 05:08:36;;;;;;;253.83;236.53;;;10.20;99.90;;;;;;4986028;28;20042;-76
2023/01/04 05:11:06;;;;;;;241.23;225.80;;;10.00;99.90;;;;;;5001388;28;20095;-75
2023/01/04 05:13:33;;;;;;;249.75;228.50;;;10.30;99.90;;;;;;5003298;28;20049;-75
2023/01/04 05:15:59;;;;;;;74.00;70.20;;;9.90;99.90;;;;;;5004852;28;20480;-75
2023/01/04 05:18:24;;;;;;;136.47;127.50;;;10.30;99.90;;;;;;4986335;28;20045;-75
2023/01/04 05:20:50;;;;;;;208.77;193.93;;;10.30;99.90;;;;;;5008013;28;20528;-75
2023/01/04 05:23:18;;;;;;;103.33;96.47;;;10.20;99.90;;;;;;4998413;28;20038;-76
2023/01/04 05:25:44;;;;;;;275.60;254.13;;;10.10;99.90;;;;;;4988635;28;20042;-75
2023/01/04 05:28:10;;;;;;;213.43;200.73;;;10.00;99.90;;;;;;4972888;28;20042;-76
2023/01/04 05:30:52;;;;;;;124.80;116.83;;;10.00;99.90;;;;;;4987849;28;20563;-74
2023/01/04 05:33:30;;;;;;;93.63;88.53;;;10.00;99.90;;;;;;4997837;28;20065;-77
2023/01/04 05:35:58;;;;;;;133.00;124.23;;;10.30;99.90;;;;;;5007913;28;20053;-76
2023/01/04 05:38:24;;;;;;;70.20;65.40;;;10.00;99.90;;;;;;4983726;28;20160;-76
2023/01/04 05:40:50;;;;;;;94.40;88.13;;;10.30;99.90;;;;;;5007583;28;20504;-76
2023/01/04 05:43:18;;;;;;;169.07;156.67;;;9.90;99.90;;;;;;5006718;28;20448;-77
2023/01/04 05:45:47;;;;;;;89.00;83.23;;;10.00;99.90;;;;;;5008291;28;20132;-75
2023/01/04 05:48:13;;;;;;;37.00;34.43;;;10.20;99.90;;;;;;4994021;28;20390;-76
2023/01/04 05:50:38;;;;;;;151.97;140.27;;;10.30;99.90;;;;;;5009768;28;20046;-75
2023/01/04 05:53:05;;;;;;;387.77;356.63;;;10.30;99.90;;;;;;5007666;28;20468;-76
2023/01/04 05:55:31;;;;;;;54.50;51.47;;;10.20;99.90;;;;;;5008226;28;20400;-76
2023/01/04 05:57:57;;;;;;;23.83;22.63;;;10.00;99.90;;;;;;4993156;28;20062;-76
2023/01/04 06:00:23;;;;;;;287.90;268.77;;;9.90;99.90;;;;;;5009434;28;20045;-75
2023/01/04 06:02:51;;;;;;;59.13;56.13;;;10.00;99.90;;;;;;5007847;28;20042;-76
2023/01/04 06:05:17;;;;;;;49.97;47.30;;;10.40;99.90;;;;;;4992208;28;20050;-76
2023/01/04 06:07:43;;;;;;;94.40;88.87;;;10.20;99.90;;;;;;4993386;28;20042;-75
2023/01/04 06:10:11;;;;;;;70.50;66.60;;;10.10;99.90;;;;;;5008994;28;20062;-76
2023/01/04 06:12:38;;;;;;;176.87;163.33;;;9.90;99.90;;;;;;5008746;28;20430;-76
2023/01/04 06:15:05;;;;;;;112.97;105.43;;;10.00;99.90;;;;;;5008252;28;20081;-75
2023/01/04 06:17:31;;;;;;;66.47;63.17;;;10.40;99.90;;;;;;4991833;28;20073;-75
2023/01/04 06:19:57;;;;;;;343.00;313.47;;;10.00;99.90;;;;;;5008887;28;20052;-75
2023/01/04 06:22:22;;;;;;;107.47;100.77;;;10.40;99.90;;;;;;5007525;28;20427;-76
2023/01/04 06:24:48;;;;;;;487.57;446.33;;;10.00;99.90;;;;;;5008248;28;20042;-76
2023/01/04 06:27:14;;;;;;;232.13;215.93;;;10.00;99.90;;;;;;4993270;28;20389;-76
2023/01/04 06:29:40;;;;;;;267.50;245.87;;;10.40;99.90;;;;;;5009535;28;20057;-77
2023/01/04 06:32:05;;;;;;;184.50;170.30;;;10.50;99.90;;;;;;5006773;28;20046;-75
2023/01/04 06:34:31;;;;;;;116.60;110.00;;;10.30;99.90;;;;;;5007771;28;20187;-75
2023/01/04 06:36:57;;;;;;;124.07;116.20;;;10.40;99.90;;;;;;4992904;28;20046;-75
2023/01/04 06:39:22;;;;;;;283.33;255.63;;;10.50;99.90;;;;;;5008018;28;20451;-76
2023/01/04 06:41:48;;;;;;;191.30;179.53;;;10.30;99.90;;;;;;5011412;28;20076;-77
2023/01/04 06:44:14;;;;;;;40.93;38.80;;;9.90;99.90;;;;;;5012333;28;20065;-75
2023/01/04 06:46:39;;;;;;;329.37;303.07;;;10.20;99.90;;;;;;4998524;28;20129;-76
2023/01/04 06:49:06;;;;;;;155.27;145.03;;;10.40;99.90;;;;;;5009961;28;20054;-76
2023/01/04 06:51:31;;;;;;;305.03;281.17;;;10.00;99.90;;;;;;5012518;28;20045;-75
2023/01/04 06:53:57;;;;;;;121.23;114.00;;;10.00;99.90;;;;;;5011612;28;20050;-76
2023/01/04 06:56:23;;;;;;;296.80;276.67;;;10.20;99.90;;;;;;5000704;28;20057;-76
2023/01/04 06:58:48;;;;;;;147.97;138.47;;;10.00;99.90;;;;;;5008584;28;20133;-76
2023/01/04 07:01:14;;;;;;;266.80;246.73;;;10.40;99.90;;;;;;5011258;28;20139;-77
2023/01/04 07:03:40;;;;;;;137.47;127.87;;;10.10;99.90;;;;;;5010307;28;20046;-75
2023/01/04 07:06:06;;;;;;;78.20;73.63;;;10.50;99.90;;;;;;5010834;28;20050;-78
2023/01/04 07:08:33;;;;;;;48.30;45.03;;;10.10;99.90;;;;;;4999053;28;20060;-76
2023/01/04 07:10:59;;;;;;;376.57;346.43;;;10.30;99.90;;;;;;5012327;28;20139;-76
2023/01/04 07:13:25;;;;;;;66.67;62.43;;;10.30;99.90;;;;;;5009970;28;20515;-75
2023/01/04 07:15:51;;;;;;;96.47;90.93;;;10.00;99.90;;;;;;5002191;28;20054;-75
2023/01/04 07:18:16;;;;;;;135.17;124.83;;;10.50;99.90;;;;;;4982994;28;20177;-77
2023/01/04 07:20:43;;;;;;;217.20;200.70;;;10.40;99.90;;;;;;5003673;28;20123;-77
2023/01/04 07:23:08;;;;;;;34.80;31.77;;;10.40;99.90;;;;;;5010494;28;20228;-77
2023/01/04 07:25:34;;;;;;;346.33;318.93;;;10.50;99.90;;;;;;5011135;28;20188;-75
2023/01/04 07:28:00;;;;;;;144.30;133.63;;;10.00;99.90;;;;;;4993307;28;20096;-75
2023/01/04 07:30:26;;;;;;;211.20;192.80;;;10.50;99.90;;;;;;5011588;28;20049;-76
2023/01/04 07:32:53;;;;;;;39.67;36.80;;;10.40;99.90;;;;;;5005116;28;20073;-75
2023/01/04 07:35:20;;;;;;;44.40;41.20;;;10.60;99.90;;;;;;5006138;28;20054;-75
2023/01/04 07:37:46;;;;;;;76.37;71.43;;;10.40;99.90;;;;;;4985004;28;20050;-76
2023/01/04 07:40:12;;;;;;;52.53;49.00;;;10.50;99.90;;;;;;4995455;28;20048;-76
2023/01/04 07:42:38;;;;;;;209.40;193.80;;;10.50;99.90;;;;;;4988872;28;20057;-75
2023/01/04 07:45:05;;;;;;;46.50;43.40;;;10.10;99.90;;;;;;4990845;28;20050;-75
2023/01/04 07:47:31;;;;;;;91.70;86.00;;;10.40;99.90;;;;;;4978864;28;20085;-75
2023/01/04 07:49:57;;;;;;;87.53;81.53;;;10.40;99.90;;;;;;5002871;28;20034;-76
2023/01/04 07:52:23;;;;;;;179.57;164.93;;;10.10;99.90;;;;;;4984975;28;20065;-75
2023/01/04 07:54:49;;;;;;;85.43;80.27;;;10.10;99.90;;;;;;4971411;28;20097;-76
2023/01/04 07:57:14;;;;;;;303.70;279.70;;;10.20;99.90;;;;;;4957871;28;20046;-76
2023/01/04 07:59:40;;;;;;;175.43;164.27;;;10.40;99.90;;;;;;4970546;28;20046;-75
2023/01/04 08:02:08;;;;;;;171.73;160.70;;;10.20;99.90;;;;;;4972676;28;20045;-75
2023/01/04 08:04:34;;;;;;;356.40;322.67;;;10.40;99.90;;;;;;4970557;28;20041;-76
2023/01/04 08:07:02;;;;;;;52.20;48.30;;;10.10;99.90;;;;;;4958949;28;20432;-76
2023/01/04 08:09:28;;;;;;;225.20;206.53;;;10.20;99.90;;;;;;4971440;28;20054;-75
2023/01/04 08:11:54;;;;;;;105.00;98.00;;;10.10;99.90;;;;;;4973738;28;20417;-77
2023/01/04 08:14:20;;;;;;;112.13;104.20;;;10.30;99.90;;;;;;4969175;28;20516;-74
2023/01/04 08:16:45;;;;;;;134.20;125.37;;;10.10;99.90;;;;;;4955580;28;20062;-76
2023/01/04 08:19:17;;;;;;;248.70;231.53;;;10.20;99.90;;;;;;4983155;28;20053;-75
2023/01/04 08:21:43;;;;;;;146.40;137.27;;;10.20;99.90;;;;;;4974035;28;20053;-76
2023/01/04 08:24:14;;;;;;;179.50;166.20;;;10.40;99.90;;;;;;4975360;28;20054;-75
2023/01/04 08:26:41;;;;;;;243.43;224.70;;;10.10;99.90;;;;;;4957294;28;20038;-75
2023/01/04 08:29:06;;;;;;;213.53;198.13;;;10.20;99.90;;;;;;4969859;28;20058;-75
2023/01/04 08:31:33;;;;;;;97.43;90.87;;;10.40;99.90;;;;;;4971929;28;20662;-75
2023/01/04 08:34:02;;;;;;;77.80;73.47;;;10.10;99.90;;;;;;4968207;28;20042;-74
2023/01/04 08:36:33;;;;;;;47.27;43.80;;;10.10;99.90;;;;;;4960675;28;20488;-75
2023/01/04 08:39:04;;;;;;;402.13;370.63;;;10.40;99.90;;;;;;4972220;28;20077;-75
2023/01/04 08:41:32;;;;;;;40.43;37.67;;;10.40;99.90;;;;;;4968565;28;20057;-76
2023/01/04 08:43:58;;;;;;;44.30;41.33;;;10.20;99.90;;;;;;4969343;28;20121;-76
2023/01/04 08:46:23;;;;;;;216.17;200.17;;;10.40;99.90;;;;;;4958373;28;20110;-75
2023/01/04 08:48:51;;;;;;;103.43;97.20;;;10.10;99.90;;;;;;4966029;28;20118;-75
2023/01/04 08:51:16;;;;;;;349.50;324.07;;;10.20;99.90;;;;;;4970053;28;20034;-75
2023/01/04 08:53:43;;;;;;;175.40;163.87;;;10.50;99.90;;;;;;4969286;28;20054;-76
2023/01/04 08:56:09;;;;;;;175.60;165.47;;;10.50;99.90;;;;;;4963269;28;20058;-78
2023/01/04 08:58:36;;;;;;;145.77;136.87;;;10.40;99.90;;;;;;4962798;28;20062;-75
2023/01/04 09:01:09;;;;;;;246.93;230.70;;;10.20;99.90;;;;;;4970261;28;20057;-75
2023/01/04 09:03:37;;;;;;;102.40;95.33;;;10.40;99.90;;;;;;4967437;28;20050;-76
2023/01/04 09:06:11;;;;;;;37.83;35.37;;;10.50;99.90;;;;;;4969324;28;20050;-76
2023/01/04 09:08:39;;;;;;;431.27;396.43;;;10.20;99.90;;;;;;4960660;28;20082;-76
2023/01/04 09:11:26;;;;;;;162.60;152.53;;;10.60;99.90;;;;;;4970369;28;20046;-75
2023/01/04 09:13:56;;;;;;;156.10;144.83;;;10.50;99.90;;;;;;4966441;28;20516;-75
2023/01/04 09:16:22;;;;;;;65.27;60.87;;;10.40;99.90;;;;;;4957919;28;20090;-77
2023/01/04 09:18:48;;;;;;;53.30;49.50;;;10.50;99.90;;;;;;4965471;28;20051;-75
2023/01/04 09:21:17;;;;;;;103.53;97.00;;;10.30;99.90;;;;;;4976963;28;20047;-75
2023/01/04 09:23:43;;;;;;;136.83;128.17;;;10.50;99.90;;;;;;4973299;28;20423;-75
2023/01/04 09:26:14;;;;;;;278.60;260.33;;;10.70;99.90;;;;;;4966532;28;20512;-77
2023/01/04 09:28:40;;;;;;;278.17;259.25;;;10.50;99.90;;;;;;4961699;28;20114;-75
2023/01/04 09:31:10;;;;;;;45.13;41.97;;;10.50;99.90;;;;;;4969391;28;20132;-75
2023/01/04 09:33:36;;;;;;;58.73;54.70;;;10.50;99.90;;;;;;4969061;28;20034;-77
2023/01/04 09:36:06;;;;;;;285.50;266.23;;;10.50;99.90;;;;;;4971500;28;20049;-75
2023/01/04 09:38:33;;;;;;;458.33;417.35;;;10.50;99.90;;;;;;4959096;28;20314;-78
2023/01/04 09:41:15;;;;;;;205.03;191.83;;;10.70;99.90;;;;;;4968848;28;20173;-75
2023/01/04 09:43:59;;;;;;;75.73;70.03;;;10.80;99.90;;;;;;4967454;28;20039;-75
2023/01/04 09:46:33;;;;;;;75.27;69.27;;;10.50;99.90;;;;;;4958382;28;20108;-78
2023/01/04 09:49:16;;;;;;;520.30;475.43;;;10.80;99.90;;;;;;4970031;28;20050;-78
2023/01/04 09:51:50;;;;;;;184.53;171.90;;;10.60;99.90;;;;;;4974417;28;20161;-76
2023/01/04 09:54:22;;;;;;;66.90;61.30;;;10.70;99.90;;;;;;4986989;28;20081;-76
2023/01/04 09:56:57;;;;;;;226.73;208.37;;;10.80;99.90;;;;;;4971167;28;20555;-75
2023/01/04 09:59:30;;;;;;;154.23;143.37;;;10.60;99.90;;;;;;4986241;28;20117;-76
2023/01/04 10:02:08;;;;;;;72.93;66.90;;;10.60;99.90;;;;;;4987240;28;20038;-76
2023/01/04 10:04:46;;;;;;;292.47;267.83;;;10.70;99.90;;;;;;4969239;28;20133;-75
2023/01/04 10:07:28;;;;;;;347.03;320.13;;;10.80;99.90;;;;;;4965669;28;20513;-76
2023/01/04 10:09:55;;;;;;;113.00;105.57;;;10.90;99.90;;;;;;4983665;28;20141;-77
2023/01/04 10:12:25;;;;;;;268.07;241.37;;;10.70;99.90;;;;;;4981891;28;20054;-76
2023/01/04 10:15:06;;;;;;;140.83;131.47;;;10.90;99.90;;;;;;4986075;28;20054;-75
2023/01/04 10:18:12;;;;;;;116.38;105.70;;;11.00;99.90;;;;;;4972994;28;20890;-76
2023/01/04 10:20:40;;;;;;;312.93;287.37;;;10.80;99.90;;;;;;4978911;28;20049;-75
2023/01/04 10:23:13;;;;;;;372.47;344.50;;;10.80;99.90;;;;;;4991984;28;20079;-76
2023/01/04 10:25:55;;;;;;;361.13;332.30;;;10.80;99.90;;;;;;4990098;28;20054;-75
2023/01/04 10:28:51;;;;;;;145.37;134.40;;;10.90;99.90;;;;;;4973092;28;20038;-76
2023/01/04 10:31:29;;;;;;;48.70;43.27;;;11.00;99.90;;;;;;4989134;28;20065;-76
2023/01/04 10:34:41;;;;;;;148.97;138.43;;;11.00;99.90;;;;;;4978103;28;20077;-76
2023/01/04 10:37:32;;;;;;;123.45;113.10;;;11.00;99.90;;;;;;4895772;29;20576;-76
2023/01/04 10:39:58;;;;;;;144.00;132.95;;;10.90;99.90;;;;;;4928049;29;20056;-76
2023/01/04 10:42:43;;;;;;;58.97;53.43;;;11.00;99.90;;;;;;4957319;28;20055;-75
2023/01/04 10:45:15;;;;;;;56.53;42.73;;;11.00;99.90;;;;;;4979799;28;20447;-76
2023/01/04 10:47:43;;;;;;;233.63;214.57;;;11.00;99.90;;;;;;4973730;28;20093;-75
2023/01/04 10:50:18;;;;;;;386.73;355.20;;;11.10;99.90;;;;;;4989861;28;20085;-75
2023/01/04 10:52:52;;;;;;;206.93;192.07;;;11.00;99.90;;;;;;4988828;28;20062;-76
2023/01/04 10:55:28;;;;;;;130.33;120.23;;;11.00;99.90;;;;;;4972306;28;20104;-76
2023/01/04 10:58:18;;;;;;;78.27;71.40;;;11.20;99.90;;;;;;4974254;28;20046;-75
2023/01/04 11:00:50;;;;;;;368.37;335.27;;;11.20;99.90;;;;;;4989316;28;20054;-76
2023/01/04 11:03:37;;;;;;;176.17;162.33;;;11.20;99.90;;;;;;4987472;28;20114;-75
2023/01/04 11:06:19;;;;;;;143.37;131.67;;;11.20;99.90;;;;;;4976891;28;20061;-75
2023/01/04 11:09:00;;;;;;;146.13;134.33;;;11.20;99.90;;;;;;4968241;28;20130;-75
2023/01/04 11:11:42;;;;;;;321.17;294.92;;;11.30;99.90;;;;;;4983278;28;20058;-77
2023/01/04 11:14:09;;;;;;;88.60;80.43;;;11.10;99.90;;;;;;4987530;28;20161;-76
2023/01/04 11:16:35;;;;;;;171.43;157.60;;;11.20;99.90;;;;;;4975307;28;20051;-75
2023/01/04 11:19:03;;;;;;;386.53;356.37;;;11.20;99.90;;;;;;4986008;28;20073;-77
2023/01/04 11:21:36;;;;;;;331.60;305.70;;;11.20;99.90;;;;;;4988823;28;20532;-75
2023/01/04 11:24:05;;;;;;;326.83;302.23;;;11.20;99.90;;;;;;4979421;28;20126;-77
2023/01/04 11:26:42;;;;;;;84.87;77.10;;;11.30;99.90;;;;;;4965699;28;20498;-77
2023/01/04 11:29:34;;;;;;;99.47;91.53;;;11.20;99.90;;;;;;4977799;28;20062;-76
2023/01/04 11:32:02;;;;;;;;;;;11.30;99.90;;;;;;4978773;28;20558;-75
2023/01/04 11:34:46;;;;;;;438.30;404.20;;;11.30;99.90;;;;;;4988337;28;19929;-75
2023/01/04 11:37:28;;;;;;;519.17;480.33;;;11.40;99.90;;;;;;4973099;28;20046;-75
2023/01/04 11:40:16;;;;;;;234.60;218.10;;;11.30;99.90;;;;;;4977716;28;20042;-76
2023/01/04 11:42:47;;;;;;;76.70;70.03;;;11.30;99.90;;;;;;4967821;28;20177;-75
2023/01/04 11:45:24;;;;;;;322.48;299.00;;;11.20;99.90;;;;;;4985990;28;20053;-76
2023/01/04 11:47:55;;;;;;;127.80;118.30;;;11.20;99.90;;;;;;4972656;28;20523;-75
2023/01/04 11:50:50;;;;;;;81.10;73.27;;;11.20;99.90;;;;;;4987276;28;20054;-76
2023/01/04 11:53:29;;;;;;;326.60;298.20;;;11.20;99.90;;;;;;4986543;28;20070;-75
2023/01/04 11:56:09;;;;;;;207.50;191.70;;;11.30;99.90;;;;;;4983681;28;20134;-76
2023/01/04 11:58:34;;;;;;;137.33;127.00;;;11.20;99.90;;;;;;4984928;28;20067;-75
2023/01/04 12:01:00;;;;;;;205.73;190.67;;;11.20;99.90;;;;;;4988445;28;20117;-75
2023/01/04 12:03:37;;;;;;;226.97;210.50;;;11.30;99.90;;;;;;4987614;28;20500;-76
2023/01/04 12:06:21;;;;;;;225.93;208.10;;;11.30;99.90;;;;;;4987393;28;20512;-75
2023/01/04 12:08:47;;;;;;;115.90;105.80;;;11.30;99.90;;;;;;4983125;28;20405;-75
2023/01/04 12:11:27;;;;;;;68.20;62.07;;;11.30;99.90;;;;;;4987929;28;20089;-75
2023/01/04 12:13:53;;;;;;;278.63;257.43;;;11.30;99.90;;;;;;4985597;28;20057;-75
2023/01/04 12:16:50;;;;;;;32.70;20.73;;;11.30;99.90;;;;;;4977557;28;20070;-76
2023/01/04 12:19:18;;;;;;;231.97;213.80;;;11.30;99.90;;;;;;4987165;28;20129;-75
2023/01/04 12:21:50;;;;;;;151.13;137.57;;;11.40;99.90;;;;;;4989335;28;20094;-76
2023/01/04 12:24:21;;;;;;;515.40;465.23;;;11.30;99.90;;;;;;5003107;28;20515;-76
2023/01/04 12:26:49;;;;;;;281.87;260.77;;;11.30;99.90;;;;;;4971606;28;20516;-76
2023/01/04 12:29:23;;;;;;;243.73;226.10;;;11.30;99.90;;;;;;4985566;28;20073;-76
2023/01/04 12:32:14;;;;;;;264.23;245.27;;;11.30;99.90;;;;;;4976952;28;20077;-76
2023/01/04 12:34:41;;;;;;;128.20;119.87;;;11.30;99.90;;;;;;4983101;28;20129;-76
2023/01/04 12:37:07;;;;;;;184.87;172.97;;;11.30;99.90;;;;;;4972846;28;20057;-76
2023/01/04 12:39:45;;;;;;;686.87;614.13;;;11.30;99.90;;;;;;4986379;28;20058;-77
2023/01/04 12:42:23;;;;;;;123.13;112.90;;;11.30;99.90;;;;;;4985750;28;20061;-75
2023/01/04 12:44:50;;;;;;;148.00;137.10;;;11.30;99.90;;;;;;4987168;28;20054;-75
2023/01/04 12:50:03;;;;;;;112.80;105.23;;;11.20;99.90;;;;;;4987757;28;20159;-76
2023/01/04 12:52:28;;;;;;;450.40;412.08;;;11.20;99.90;;;;;;4986685;28;20496;-75
2023/01/04 12:54:57;;;;;;;751.90;681.40;;;11.20;99.90;;;;;;4985824;28;20057;-76
2023/01/04 12:57:38;;;;;;;326.80;302.37;;;11.20;99.90;;;;;;4971467;28;20452;-76
2023/01/04 13:00:12;;;;;;;49.85;45.70;;;11.20;99.90;;;;;;4986461;28;20085;-75
2023/01/04 13:02:46;;;;;;;44.47;40.63;;;11.20;99.90;;;;;;4974346;28;20054;-75
2023/01/04 13:05:17;;;;;;;96.80;90.20;;;11.20;99.90;;;;;;4979263;28;20064;-76
2023/01/04 13:07:52;;;;;;;151.20;139.32;;;11.20;99.90;;;;;;4970384;28;20050;-76
2023/01/04 13:10:32;;;;;;;394.90;362.80;;;11.10;99.90;;;;;;4987111;28;20100;-76
2023/01/04 13:13:20;;;;;;;448.67;400.73;;;11.10;99.90;;;;;;4986639;28;20062;-76
2023/01/04 13:16:10;;;;;;;81.97;76.00;;;11.10;99.90;;;;;;4967537;28;20418;-76
2023/01/04 13:18:36;;;;;;;262.77;242.83;;;11.20;99.90;;;;;;4957277;28;20663;-76
2023/01/04 13:21:12;;;;;;;84.37;78.23;;;11.20;99.90;;;;;;4968124;28;20125;-76